sensor_id;sensor_type;location;lat;lon;timestamp;temperature;humidity
53268;DHT22;39156;51.176;6.738;2022-10-31T00:00:17;14.70;67.70
53268;DHT22;39156;51.176;6.738;2022-10-31T00:02:43;14.70;67.60
53268;DHT22;39156;51.176;6.738;2022-10-31T00:05:09;14.70;67.50
53268;DHT22;39156;51.176;6.738;2022-10-31T00:07:35;14.60;67.40
53268;DHT22;39156;51.176;6.738;2022-10-31T00:10:00;14.60;67.40
53268;DHT22;39156;51.176;6.738;2022-10-31T00:12:26;14.60;67.50
53268;DHT22;39156;51.176;6.738;2022-10-31T00:14:52;14.50;67.40
53268;DHT22;39156;51.176;6.738;2022-10-31T00:17:18;14.50;67.50
53268;DHT22;39156;51.176;6.738;2022-10-31T00:19:44;14.40;67.40
53268;DHT22;39156;51.176;6.738;2022-10-31T00:22:09;14.40;67.60
53268;DHT22;39156;51.176;6.738;2022-10-31T00:24:35;14.30;67.70
53268;DHT22;39156;51.176;6.738;2022-10-31T00:27:01;14.30;67.90
53268;DHT22;39156;51.176;6.738;2022-10-31T00:29:26;14.30;68.00
53268;DHT22;39156;51.176;6.738;2022-10-31T00:31:52;14.30;68.30
53268;DHT22;39156;51.176;6.738;2022-10-31T00:34:18;14.20;68.40
53268;DHT22;39156;51.176;6.738;2022-10-31T00:36:44;14.20;68.50
53268;DHT22;39156;51.176;6.738;2022-10-31T00:39:09;14.20;68.60
53268;DHT22;39156;51.176;6.738;2022-10-31T00:41:35;14.20;68.50
53268;DHT22;39156;51.176;6.738;2022-10-31T00:44:01;14.20;68.70
53268;DHT22;39156;51.176;6.738;2022-10-31T00:46:26;14.20;68.70
53268;DHT22;39156;51.176;6.738;2022-10-31T00:48:52;14.20;68.80
53268;DHT22;39156;51.176;6.738;2022-10-31T00:51:18;14.20;69.50
53268;DHT22;39156;51.176;6.738;2022-10-31T00:53:44;14.10;68.80
53268;DHT22;39156;51.176;6.738;2022-10-31T00:56:09;14.20;68.90
53268;DHT22;39156;51.176;6.738;2022-10-31T00:58:35;14.20;68.90
53268;DHT22;39156;51.176;6.738;2022-10-31T01:01:01;14.10;69.00
53268;DHT22;39156;51.176;6.738;2022-10-31T01:03:29;14.20;69.30
53268;DHT22;39156;51.176;6.738;2022-10-31T01:06:05;14.10;69.50
53268;DHT22;39156;51.176;6.738;2022-10-31T01:08:33;14.10;69.90
53268;DHT22;39156;51.176;6.738;2022-10-31T01:11:06;14.10;70.50
53268;DHT22;39156;51.176;6.738;2022-10-31T01:13:35;14.20;70.20
53268;DHT22;39156;51.176;6.738;2022-10-31T01:16:02;14.10;69.90
53268;DHT22;39156;51.176;6.738;2022-10-31T01:18:29;14.10;70.10
53268;DHT22;39156;51.176;6.738;2022-10-31T01:21:03;14.20;70.00
53268;DHT22;39156;51.176;6.738;2022-10-31T01:23:32;14.10;70.40
53268;DHT22;39156;51.176;6.738;2022-10-31T01:28:26;14.10;70.30
53268;DHT22;39156;51.176;6.738;2022-10-31T01:30:52;14.10;70.30
53268;DHT22;39156;51.176;6.738;2022-10-31T01:33:18;14.10;70.20
53268;DHT22;39156;51.176;6.738;2022-10-31T01:35:43;14.10;70.20
53268;DHT22;39156;51.176;6.738;2022-10-31T01:38:09;14.10;70.10
53268;DHT22;39156;51.176;6.738;2022-10-31T01:40:34;14.00;70.20
53268;DHT22;39156;51.176;6.738;2022-10-31T01:43:00;14.10;70.40
53268;DHT22;39156;51.176;6.738;2022-10-31T01:45:26;14.00;70.50
53268;DHT22;39156;51.176;6.738;2022-10-31T01:47:51;14.00;70.60
53268;DHT22;39156;51.176;6.738;2022-10-31T01:50:28;14.00;71.30
53268;DHT22;39156;51.176;6.738;2022-10-31T01:52:59;14.00;70.90
53268;DHT22;39156;51.176;6.738;2022-10-31T01:55:30;14.00;70.60
53268;DHT22;39156;51.176;6.738;2022-10-31T01:58:07;14.00;70.60
53268;DHT22;39156;51.176;6.738;2022-10-31T02:00:38;14.00;70.70
53268;DHT22;39156;51.176;6.738;2022-10-31T02:03:05;14.00;70.50
53268;DHT22;39156;51.176;6.738;2022-10-31T02:05:31;14.00;70.40
53268;DHT22;39156;51.176;6.738;2022-10-31T02:08:04;14.00;70.50
53268;DHT22;39156;51.176;6.738;2022-10-31T02:10:34;13.90;70.60
53268;DHT22;39156;51.176;6.738;2022-10-31T02:13:04;14.00;70.40
53268;DHT22;39156;51.176;6.738;2022-10-31T02:15:32;14.00;70.40
53268;DHT22;39156;51.176;6.738;2022-10-31T02:17:59;13.90;70.30
53268;DHT22;39156;51.176;6.738;2022-10-31T02:20:29;13.90;70.30
53268;DHT22;39156;51.176;6.738;2022-10-31T02:26:13;13.90;70.60
53268;DHT22;39156;51.176;6.738;2022-10-31T02:34:50;13.80;70.50
53268;DHT22;39156;51.176;6.738;2022-10-31T02:37:53;13.70;70.30
53268;DHT22;39156;51.176;6.738;2022-10-31T02:51:50;13.60;70.80
53268;DHT22;39156;51.176;6.738;2022-10-31T02:54:18;13.60;70.80
53268;DHT22;39156;51.176;6.738;2022-10-31T02:56:47;13.60;71.10
53268;DHT22;39156;51.176;6.738;2022-10-31T02:59:14;13.60;71.30
53268;DHT22;39156;51.176;6.738;2022-10-31T03:02:05;13.60;71.40
53268;DHT22;39156;51.176;6.738;2022-10-31T03:07:21;13.60;71.50
53268;DHT22;39156;51.176;6.738;2022-10-31T03:12:47;13.60;71.50
53268;DHT22;39156;51.176;6.738;2022-10-31T03:15:32;13.50;71.60
53268;DHT22;39156;51.176;6.738;2022-10-31T03:18:09;13.60;71.70
53268;DHT22;39156;51.176;6.738;2022-10-31T03:20:52;13.60;71.70
53268;DHT22;39156;51.176;6.738;2022-10-31T03:23:21;13.50;71.70
53268;DHT22;39156;51.176;6.738;2022-10-31T03:25:48;13.50;71.30
53268;DHT22;39156;51.176;6.738;2022-10-31T03:28:17;13.50;71.30
53268;DHT22;39156;51.176;6.738;2022-10-31T03:30:45;13.40;71.30
53268;DHT22;39156;51.176;6.738;2022-10-31T03:33:16;13.40;71.40
53268;DHT22;39156;51.176;6.738;2022-10-31T03:35:47;13.40;71.60
53268;DHT22;39156;51.176;6.738;2022-10-31T03:38:14;13.30;71.60
53268;DHT22;39156;51.176;6.738;2022-10-31T03:40:41;13.30;71.50
53268;DHT22;39156;51.176;6.738;2022-10-31T03:43:12;13.30;71.80
53268;DHT22;39156;51.176;6.738;2022-10-31T03:45:44;13.20;71.90
53268;DHT22;39156;51.176;6.738;2022-10-31T03:48:12;13.20;72.00
53268;DHT22;39156;51.176;6.738;2022-10-31T03:50:50;13.20;72.20
53268;DHT22;39156;51.176;6.738;2022-10-31T03:56:10;13.10;72.60
53268;DHT22;39156;51.176;6.738;2022-10-31T04:01:32;13.00;73.00
53268;DHT22;39156;51.176;6.738;2022-10-31T04:04:00;13.00;72.60
53268;DHT22;39156;51.176;6.738;2022-10-31T04:06:27;13.00;72.60
53268;DHT22;39156;51.176;6.738;2022-10-31T04:09:00;13.00;72.80
53268;DHT22;39156;51.176;6.738;2022-10-31T04:11:33;13.00;73.00
53268;DHT22;39156;51.176;6.738;2022-10-31T04:14:02;13.00;72.80
53268;DHT22;39156;51.176;6.738;2022-10-31T04:16:29;13.00;72.70
53268;DHT22;39156;51.176;6.738;2022-10-31T04:18:55;13.00;72.50
53268;DHT22;39156;51.176;6.738;2022-10-31T04:21:29;13.00;72.50
53268;DHT22;39156;51.176;6.738;2022-10-31T04:23:56;13.00;72.40
53268;DHT22;39156;51.176;6.738;2022-10-31T04:26:22;13.00;72.30
53268;DHT22;39156;51.176;6.738;2022-10-31T04:28:47;13.00;72.40
53268;DHT22;39156;51.176;6.738;2022-10-31T04:31:14;13.00;72.40
53268;DHT22;39156;51.176;6.738;2022-10-31T04:33:39;13.00;72.20
53268;DHT22;39156;51.176;6.738;2022-10-31T04:36:05;13.10;72.20
53268;DHT22;39156;51.176;6.738;2022-10-31T04:38:31;13.00;72.20
53268;DHT22;39156;51.176;6.738;2022-10-31T04:40:57;13.00;72.20
53268;DHT22;39156;51.176;6.738;2022-10-31T04:43:23;13.00;72.20
53268;DHT22;39156;51.176;6.738;2022-10-31T04:45:48;13.00;72.20
53268;DHT22;39156;51.176;6.738;2022-10-31T04:48:14;13.00;72.20
53268;DHT22;39156;51.176;6.738;2022-10-31T04:50:40;13.00;72.30
53268;DHT22;39156;51.176;6.738;2022-10-31T04:53:05;13.00;72.30
53268;DHT22;39156;51.176;6.738;2022-10-31T04:55:31;12.90;72.30
53268;DHT22;39156;51.176;6.738;2022-10-31T04:57:57;12.90;72.30
53268;DHT22;39156;51.176;6.738;2022-10-31T05:00:23;12.90;72.20
53268;DHT22;39156;51.176;6.738;2022-10-31T05:02:55;12.90;72.20
53268;DHT22;39156;51.176;6.738;2022-10-31T05:05:28;12.90;72.40
53268;DHT22;39156;51.176;6.738;2022-10-31T05:07:55;12.90;72.40
53268;DHT22;39156;51.176;6.738;2022-10-31T05:10:24;12.80;72.30
53268;DHT22;39156;51.176;6.738;2022-10-31T05:12:53;12.80;72.40
53268;DHT22;39156;51.176;6.738;2022-10-31T05:15:22;12.80;72.40
53268;DHT22;39156;51.176;6.738;2022-10-31T05:17:48;12.80;72.30
53268;DHT22;39156;51.176;6.738;2022-10-31T05:20:16;12.90;72.40
53268;DHT22;39156;51.176;6.738;2022-10-31T05:22:47;12.80;72.40
53268;DHT22;39156;51.176;6.738;2022-10-31T05:25:17;12.80;72.40
53268;DHT22;39156;51.176;6.738;2022-10-31T05:27:45;12.80;72.30
53268;DHT22;39156;51.176;6.738;2022-10-31T05:30:14;12.80;72.30
53268;DHT22;39156;51.176;6.738;2022-10-31T05:32:43;12.80;72.20
53268;DHT22;39156;51.176;6.738;2022-10-31T05:35:15;12.70;72.20
53268;DHT22;39156;51.176;6.738;2022-10-31T05:37:43;12.80;72.30
53268;DHT22;39156;51.176;6.738;2022-10-31T05:40:10;12.80;72.20
53268;DHT22;39156;51.176;6.738;2022-10-31T05:42:39;12.70;72.30
53268;DHT22;39156;51.176;6.738;2022-10-31T05:45:10;12.70;72.30
53268;DHT22;39156;51.176;6.738;2022-10-31T05:47:38;12.70;72.40
53268;DHT22;39156;51.176;6.738;2022-10-31T05:50:04;12.70;72.30
53268;DHT22;39156;51.176;6.738;2022-10-31T05:52:31;12.70;72.40
53268;DHT22;39156;51.176;6.738;2022-10-31T05:54:57;12.70;72.40
53268;DHT22;39156;51.176;6.738;2022-10-31T05:57:22;12.60;72.50
53268;DHT22;39156;51.176;6.738;2022-10-31T05:59:48;12.60;72.50
53268;DHT22;39156;51.176;6.738;2022-10-31T06:02:14;12.60;72.50
53268;DHT22;39156;51.176;6.738;2022-10-31T06:04:39;12.60;72.50
53268;DHT22;39156;51.176;6.738;2022-10-31T06:07:05;12.60;72.60
53268;DHT22;39156;51.176;6.738;2022-10-31T06:09:30;12.60;72.70
53268;DHT22;39156;51.176;6.738;2022-10-31T06:11:56;12.60;72.90
53268;DHT22;39156;51.176;6.738;2022-10-31T06:14:22;12.50;72.80
53268;DHT22;39156;51.176;6.738;2022-10-31T06:16:47;12.60;72.80
53268;DHT22;39156;51.176;6.738;2022-10-31T06:19:13;12.60;72.90
53268;DHT22;39156;51.176;6.738;2022-10-31T06:21:39;12.50;72.90
53268;DHT22;39156;51.176;6.738;2022-10-31T06:24:05;12.50;73.00
53268;DHT22;39156;51.176;6.738;2022-10-31T06:26:30;12.50;73.20
53268;DHT22;39156;51.176;6.738;2022-10-31T06:28:56;12.60;73.30
53268;DHT22;39156;51.176;6.738;2022-10-31T06:31:22;12.40;73.10
53268;DHT22;39156;51.176;6.738;2022-10-31T06:33:47;12.50;73.20
53268;DHT22;39156;51.176;6.738;2022-10-31T06:36:13;12.50;73.30
53268;DHT22;39156;51.176;6.738;2022-10-31T06:38:39;12.50;73.30
53268;DHT22;39156;51.176;6.738;2022-10-31T06:41:06;12.50;73.30
53268;DHT22;39156;51.176;6.738;2022-10-31T06:43:32;12.50;73.30
53268;DHT22;39156;51.176;6.738;2022-10-31T06:46:02;12.50;73.40
53268;DHT22;39156;51.176;6.738;2022-10-31T06:48:28;12.50;74.00
53268;DHT22;39156;51.176;6.738;2022-10-31T06:50:57;12.60;73.90
53268;DHT22;39156;51.176;6.738;2022-10-31T06:53:25;12.50;73.60
53268;DHT22;39156;51.176;6.738;2022-10-31T06:55:51;12.50;73.50
53268;DHT22;39156;51.176;6.738;2022-10-31T06:58:16;12.60;73.60
53268;DHT22;39156;51.176;6.738;2022-10-31T07:00:42;12.60;73.60
53268;DHT22;39156;51.176;6.738;2022-10-31T07:03:13;12.60;73.60
53268;DHT22;39156;51.176;6.738;2022-10-31T07:05:41;12.60;73.60
53268;DHT22;39156;51.176;6.738;2022-10-31T07:08:11;12.70;74.00
53268;DHT22;39156;51.176;6.738;2022-10-31T07:10:39;12.70;74.40
53268;DHT22;39156;51.176;6.738;2022-10-31T07:13:12;12.70;74.70
53268;DHT22;39156;51.176;6.738;2022-10-31T07:15:40;12.70;74.20
53268;DHT22;39156;51.176;6.738;2022-10-31T07:18:10;12.80;74.40
53268;DHT22;39156;51.176;6.738;2022-10-31T07:20:37;12.80;74.30
53268;DHT22;39156;51.176;6.738;2022-10-31T07:23:03;12.80;73.60
53268;DHT22;39156;51.176;6.738;2022-10-31T07:25:29;12.90;73.90
53268;DHT22;39156;51.176;6.738;2022-10-31T07:27:55;13.00;73.60
53268;DHT22;39156;51.176;6.738;2022-10-31T07:30:21;13.00;73.70
53268;DHT22;39156;51.176;6.738;2022-10-31T07:32:48;13.00;73.90
53268;DHT22;39156;51.176;6.738;2022-10-31T07:35:20;13.00;74.00
53268;DHT22;39156;51.176;6.738;2022-10-31T07:37:48;13.00;74.50
53268;DHT22;39156;51.176;6.738;2022-10-31T07:40:15;13.10;74.20
53268;DHT22;39156;51.176;6.738;2022-10-31T07:42:43;13.20;73.90
53268;DHT22;39156;51.176;6.738;2022-10-31T07:45:14;13.20;73.50
53268;DHT22;39156;51.176;6.738;2022-10-31T07:47:44;13.30;73.50
53268;DHT22;39156;51.176;6.738;2022-10-31T07:50:13;13.30;73.50
53268;DHT22;39156;51.176;6.738;2022-10-31T07:52:40;13.30;73.60
53268;DHT22;39156;51.176;6.738;2022-10-31T07:55:06;13.50;73.60
53268;DHT22;39156;51.176;6.738;2022-10-31T07:57:32;13.50;73.30
53268;DHT22;39156;51.176;6.738;2022-10-31T07:59:58;13.70;73.40
53268;DHT22;39156;51.176;6.738;2022-10-31T08:02:24;13.70;72.80
53268;DHT22;39156;51.176;6.738;2022-10-31T08:04:50;13.80;72.80
53268;DHT22;39156;51.176;6.738;2022-10-31T08:07:16;13.80;72.70
53268;DHT22;39156;51.176;6.738;2022-10-31T08:09:42;13.80;72.50
53268;DHT22;39156;51.176;6.738;2022-10-31T08:12:08;13.90;72.40
53268;DHT22;39156;51.176;6.738;2022-10-31T08:14:33;14.00;72.30
53268;DHT22;39156;51.176;6.738;2022-10-31T08:16:59;14.10;72.20
53268;DHT22;39156;51.176;6.738;2022-10-31T08:19:25;14.20;72.10
53268;DHT22;39156;51.176;6.738;2022-10-31T08:21:52;14.30;71.90
53268;DHT22;39156;51.176;6.738;2022-10-31T08:24:23;14.40;71.90
53268;DHT22;39156;51.176;6.738;2022-10-31T08:26:48;14.50;71.80
53268;DHT22;39156;51.176;6.738;2022-10-31T08:29:14;14.60;71.60
53268;DHT22;39156;51.176;6.738;2022-10-31T08:31:41;14.80;71.60
53268;DHT22;39156;51.176;6.738;2022-10-31T08:34:07;15.00;71.10
53268;DHT22;39156;51.176;6.738;2022-10-31T08:36:33;15.10;70.90
53268;DHT22;39156;51.176;6.738;2022-10-31T08:38:59;15.30;70.60
53268;DHT22;39156;51.176;6.738;2022-10-31T08:41:25;15.50;70.20
53268;DHT22;39156;51.176;6.738;2022-10-31T08:43:51;15.60;69.80
53268;DHT22;39156;51.176;6.738;2022-10-31T08:46:17;15.80;69.40
53268;DHT22;39156;51.176;6.738;2022-10-31T08:48:44;15.90;68.90
53268;DHT22;39156;51.176;6.738;2022-10-31T08:51:10;16.00;68.80
53268;DHT22;39156;51.176;6.738;2022-10-31T08:53:36;16.00;68.50
53268;DHT22;39156;51.176;6.738;2022-10-31T08:56:02;16.20;68.30
53268;DHT22;39156;51.176;6.738;2022-10-31T08:58:28;16.20;67.80
53268;DHT22;39156;51.176;6.738;2022-10-31T09:00:54;16.20;67.30
53268;DHT22;39156;51.176;6.738;2022-10-31T09:03:24;16.20;67.10
53268;DHT22;39156;51.176;6.738;2022-10-31T09:05:53;16.20;66.70
53268;DHT22;39156;51.176;6.738;2022-10-31T09:08:20;16.20;67.00
53268;DHT22;39156;51.176;6.738;2022-10-31T09:10:46;16.30;67.30
53268;DHT22;39156;51.176;6.738;2022-10-31T09:13:14;16.30;67.40
53268;DHT22;39156;51.176;6.738;2022-10-31T09:15:43;16.30;67.20
53268;DHT22;39156;51.176;6.738;2022-10-31T09:18:11;16.40;66.90
53268;DHT22;39156;51.176;6.738;2022-10-31T09:20:39;16.40;66.80
53268;DHT22;39156;51.176;6.738;2022-10-31T09:23:11;16.50;66.50
53268;DHT22;39156;51.176;6.738;2022-10-31T09:25:38;16.50;65.90
53268;DHT22;39156;51.176;6.738;2022-10-31T09:28:06;16.50;65.70
53268;DHT22;39156;51.176;6.738;2022-10-31T09:30:34;16.60;65.50
53268;DHT22;39156;51.176;6.738;2022-10-31T09:33:05;16.50;65.50
53268;DHT22;39156;51.176;6.738;2022-10-31T09:35:32;16.50;65.50
53268;DHT22;39156;51.176;6.738;2022-10-31T09:37:59;16.60;65.60
53268;DHT22;39156;51.176;6.738;2022-10-31T09:40:36;16.70;65.80
53268;DHT22;39156;51.176;6.738;2022-10-31T09:43:43;16.80;65.40
53268;DHT22;39156;51.176;6.738;2022-10-31T09:49:24;17.00;64.90
53268;DHT22;39156;51.176;6.738;2022-10-31T09:52:24;17.00;64.70
53268;DHT22;39156;51.176;6.738;2022-10-31T09:54:58;17.00;64.60
53268;DHT22;39156;51.176;6.738;2022-10-31T09:57:40;17.10;64.80
53268;DHT22;39156;51.176;6.738;2022-10-31T10:00:10;17.10;64.00
53268;DHT22;39156;51.176;6.738;2022-10-31T10:02:56;17.20;64.70
53268;DHT22;39156;51.176;6.738;2022-10-31T10:05:37;17.20;64.10
53268;DHT22;39156;51.176;6.738;2022-10-31T10:08:18;17.20;64.20
53268;DHT22;39156;51.176;6.738;2022-10-31T10:19:44;17.30;64.20
53268;DHT22;39156;51.176;6.738;2022-10-31T10:22:24;17.40;64.40
53268;DHT22;39156;51.176;6.738;2022-10-31T10:27:41;17.50;63.40
53268;DHT22;39156;51.176;6.738;2022-10-31T10:30:38;17.50;65.10
53268;DHT22;39156;51.176;6.738;2022-10-31T10:33:46;17.40;63.50
53268;DHT22;39156;51.176;6.738;2022-10-31T10:36:19;17.40;63.30
53268;DHT22;39156;51.176;6.738;2022-10-31T10:39:02;17.30;63.40
53268;DHT22;39156;51.176;6.738;2022-10-31T10:41:38;17.30;63.50
53268;DHT22;39156;51.176;6.738;2022-10-31T10:44:09;17.20;63.50
53268;DHT22;39156;51.176;6.738;2022-10-31T10:46:42;17.10;63.70
53268;DHT22;39156;51.176;6.738;2022-10-31T10:49:38;17.10;63.90
53268;DHT22;39156;51.176;6.738;2022-10-31T10:55:09;17.00;64.10
53268;DHT22;39156;51.176;6.738;2022-10-31T10:57:52;17.00;64.20
53268;DHT22;39156;51.176;6.738;2022-10-31T11:00:25;17.10;64.40
53268;DHT22;39156;51.176;6.738;2022-10-31T11:02:52;17.10;64.50
53268;DHT22;39156;51.176;6.738;2022-10-31T11:05:48;17.10;63.90
53268;DHT22;39156;51.176;6.738;2022-10-31T11:08:31;17.30;63.70
53268;DHT22;39156;51.176;6.738;2022-10-31T11:10:59;17.30;63.70
53268;DHT22;39156;51.176;6.738;2022-10-31T11:13:28;17.40;63.20
53268;DHT22;39156;51.176;6.738;2022-10-31T11:16:10;17.50;63.10
53268;DHT22;39156;51.176;6.738;2022-10-31T11:18:40;17.50;62.20
53268;DHT22;39156;51.176;6.738;2022-10-31T11:21:29;17.60;62.30
53268;DHT22;39156;51.176;6.738;2022-10-31T11:24:16;17.60;62.80
53268;DHT22;39156;51.176;6.738;2022-10-31T11:26:46;17.80;62.20
53268;DHT22;39156;51.176;6.738;2022-10-31T11:29:23;17.80;62.10
53268;DHT22;39156;51.176;6.738;2022-10-31T11:31:51;17.90;61.80
53268;DHT22;39156;51.176;6.738;2022-10-31T11:34:33;18.00;62.40
53268;DHT22;39156;51.176;6.738;2022-10-31T11:37:15;18.10;61.40
53268;DHT22;39156;51.176;6.738;2022-10-31T11:39:45;18.10;61.20
53268;DHT22;39156;51.176;6.738;2022-10-31T11:42:26;18.20;61.20
53268;DHT22;39156;51.176;6.738;2022-10-31T11:44:54;18.20;61.70
53268;DHT22;39156;51.176;6.738;2022-10-31T11:47:27;18.30;61.20
53268;DHT22;39156;51.176;6.738;2022-10-31T11:49:55;18.30;61.10
53268;DHT22;39156;51.176;6.738;2022-10-31T11:52:39;18.30;61.90
53268;DHT22;39156;51.176;6.738;2022-10-31T11:57:48;18.40;60.60
53268;DHT22;39156;51.176;6.738;2022-10-31T12:00:29;18.40;60.70
53268;DHT22;39156;51.176;6.738;2022-10-31T12:05:56;18.50;60.10
53268;DHT22;39156;51.176;6.738;2022-10-31T12:08:30;18.60;59.80
53268;DHT22;39156;51.176;6.738;2022-10-31T12:11:38;18.60;59.30
53268;DHT22;39156;51.176;6.738;2022-10-31T12:16:55;18.70;58.70
53268;DHT22;39156;51.176;6.738;2022-10-31T12:30:59;18.70;57.70
53268;DHT22;39156;51.176;6.738;2022-10-31T12:36:51;18.70;57.40
53268;DHT22;39156;51.176;6.738;2022-10-31T12:45:37;18.80;57.30
53268;DHT22;39156;51.176;6.738;2022-10-31T12:54:22;18.70;57.20
53268;DHT22;39156;51.176;6.738;2022-10-31T12:57:23;18.80;57.30
53268;DHT22;39156;51.176;6.738;2022-10-31T13:00:13;18.70;57.10
53268;DHT22;39156;51.176;6.738;2022-10-31T13:02:51;18.70;57.00
53268;DHT22;39156;51.176;6.738;2022-10-31T13:05:42;18.70;57.10
53268;DHT22;39156;51.176;6.738;2022-10-31T13:08:15;18.70;57.50
53268;DHT22;39156;51.176;6.738;2022-10-31T13:10:47;18.70;57.50
53268;DHT22;39156;51.176;6.738;2022-10-31T13:13:27;18.70;57.60
53268;DHT22;39156;51.176;6.738;2022-10-31T13:16:15;18.70;57.60
53268;DHT22;39156;51.176;6.738;2022-10-31T13:18:56;18.60;57.70
53268;DHT22;39156;51.176;6.738;2022-10-31T13:21:32;18.60;58.00
53268;DHT22;39156;51.176;6.738;2022-10-31T13:24:55;18.60;58.00
53268;DHT22;39156;51.176;6.738;2022-10-31T13:27:30;18.60;58.00
53268;DHT22;39156;51.176;6.738;2022-10-31T13:38:42;18.70;58.00
53268;DHT22;39156;51.176;6.738;2022-10-31T13:46:56;18.70;58.10
53268;DHT22;39156;51.176;6.738;2022-10-31T13:57:30;18.80;57.20
53268;DHT22;39156;51.176;6.738;2022-10-31T14:02:48;18.80;57.20
53268;DHT22;39156;51.176;6.738;2022-10-31T14:05:30;18.80;57.10
53268;DHT22;39156;51.176;6.738;2022-10-31T14:08:00;18.80;56.80
53268;DHT22;39156;51.176;6.738;2022-10-31T14:10:36;18.80;57.00
53268;DHT22;39156;51.176;6.738;2022-10-31T14:13:34;18.80;56.90
53268;DHT22;39156;51.176;6.738;2022-10-31T14:16:20;18.80;56.60
53268;DHT22;39156;51.176;6.738;2022-10-31T14:18:56;18.80;56.70
53268;DHT22;39156;51.176;6.738;2022-10-31T14:23:51;18.70;56.80
53268;DHT22;39156;51.176;6.738;2022-10-31T14:26:32;18.70;56.80
53268;DHT22;39156;51.176;6.738;2022-10-31T14:34:56;18.70;56.60
53268;DHT22;39156;51.176;6.738;2022-10-31T14:37:53;18.70;56.90
53268;DHT22;39156;51.176;6.738;2022-10-31T14:47:00;18.70;56.70
53268;DHT22;39156;51.176;6.738;2022-10-31T14:50:00;18.70;56.80
53268;DHT22;39156;51.176;6.738;2022-10-31T14:52:36;18.60;56.50
53268;DHT22;39156;51.176;6.738;2022-10-31T14:55:06;18.70;56.60
53268;DHT22;39156;51.176;6.738;2022-10-31T14:57:37;18.60;56.50
53268;DHT22;39156;51.176;6.738;2022-10-31T15:00:07;18.60;56.40
53268;DHT22;39156;51.176;6.738;2022-10-31T15:02:50;18.60;56.50
53268;DHT22;39156;51.176;6.738;2022-10-31T15:05:35;18.60;56.40
53268;DHT22;39156;51.176;6.738;2022-10-31T15:08:14;18.50;56.60
53268;DHT22;39156;51.176;6.738;2022-10-31T15:10:52;18.50;56.60
53268;DHT22;39156;51.176;6.738;2022-10-31T15:13:19;18.50;56.80
53268;DHT22;39156;51.176;6.738;2022-10-31T15:15:54;18.50;57.50
53268;DHT22;39156;51.176;6.738;2022-10-31T15:18:24;18.40;56.70
53268;DHT22;39156;51.176;6.738;2022-10-31T15:20:52;18.40;56.80
53268;DHT22;39156;51.176;6.738;2022-10-31T15:23:25;18.40;56.90
53268;DHT22;39156;51.176;6.738;2022-10-31T15:25:59;18.40;57.00
53268;DHT22;39156;51.176;6.738;2022-10-31T15:28:25;18.40;56.70
53268;DHT22;39156;51.176;6.738;2022-10-31T15:30:53;18.40;56.90
53268;DHT22;39156;51.176;6.738;2022-10-31T15:33:25;18.30;57.00
53268;DHT22;39156;51.176;6.738;2022-10-31T15:36:00;18.40;57.00
53268;DHT22;39156;51.176;6.738;2022-10-31T15:38:28;18.40;57.00
53268;DHT22;39156;51.176;6.738;2022-10-31T15:41:04;18.30;56.90
53268;DHT22;39156;51.176;6.738;2022-10-31T15:43:44;18.30;57.00
53268;DHT22;39156;51.176;6.738;2022-10-31T15:46:11;18.30;57.00
53268;DHT22;39156;51.176;6.738;2022-10-31T15:48:37;18.30;57.00
53268;DHT22;39156;51.176;6.738;2022-10-31T15:51:03;18.30;57.00
53268;DHT22;39156;51.176;6.738;2022-10-31T15:56:25;18.20;56.90
53268;DHT22;39156;51.176;6.738;2022-10-31T15:58:55;18.20;57.00
53268;DHT22;39156;51.176;6.738;2022-10-31T16:01:27;18.20;57.00
53268;DHT22;39156;51.176;6.738;2022-10-31T16:04:21;18.20;57.00
53268;DHT22;39156;51.176;6.738;2022-10-31T16:07:12;18.10;56.90
53268;DHT22;39156;51.176;6.738;2022-10-31T16:12:14;18.00;56.90
53268;DHT22;39156;51.176;6.738;2022-10-31T16:14:41;18.00;57.00
53268;DHT22;39156;51.176;6.738;2022-10-31T16:17:12;18.00;56.80
53268;DHT22;39156;51.176;6.738;2022-10-31T16:22:29;18.00;56.90
53268;DHT22;39156;51.176;6.738;2022-10-31T16:25:01;18.00;56.80
53268;DHT22;39156;51.176;6.738;2022-10-31T16:27:36;17.90;56.70
53268;DHT22;39156;51.176;6.738;2022-10-31T16:30:44;17.90;56.60
53268;DHT22;39156;51.176;6.738;2022-10-31T16:33:35;17.90;56.40
53268;DHT22;39156;51.176;6.738;2022-10-31T16:39:03;17.80;56.30
53268;DHT22;39156;51.176;6.738;2022-10-31T16:41:29;17.80;56.20
53268;DHT22;39156;51.176;6.738;2022-10-31T16:47:25;17.80;56.10
53268;DHT22;39156;51.176;6.738;2022-10-31T16:49:51;17.70;56.30
53268;DHT22;39156;51.176;6.738;2022-10-31T16:52:17;17.70;56.20
53268;DHT22;39156;51.176;6.738;2022-10-31T16:54:43;17.70;56.30
53268;DHT22;39156;51.176;6.738;2022-10-31T16:57:14;17.70;56.30
53268;DHT22;39156;51.176;6.738;2022-10-31T16:59:42;17.70;56.20
53268;DHT22;39156;51.176;6.738;2022-10-31T17:02:15;17.70;56.30
53268;DHT22;39156;51.176;6.738;2022-10-31T17:04:41;17.60;56.10
53268;DHT22;39156;51.176;6.738;2022-10-31T17:07:06;17.70;56.30
53268;DHT22;39156;51.176;6.738;2022-10-31T17:09:32;17.60;56.20
53268;DHT22;39156;51.176;6.738;2022-10-31T17:11:58;17.60;56.20
53268;DHT22;39156;51.176;6.738;2022-10-31T17:14:24;17.60;56.20
53268;DHT22;39156;51.176;6.738;2022-10-31T17:16:50;17.60;56.30
53268;DHT22;39156;51.176;6.738;2022-10-31T17:19:16;17.60;56.40
53268;DHT22;39156;51.176;6.738;2022-10-31T17:21:42;17.60;56.40
53268;DHT22;39156;51.176;6.738;2022-10-31T17:24:11;17.60;56.60
53268;DHT22;39156;51.176;6.738;2022-10-31T17:26:38;17.60;56.60
53268;DHT22;39156;51.176;6.738;2022-10-31T17:29:03;17.60;56.70
53268;DHT22;39156;51.176;6.738;2022-10-31T17:31:31;17.50;56.70
53268;DHT22;39156;51.176;6.738;2022-10-31T17:34:01;17.50;56.80
53268;DHT22;39156;51.176;6.738;2022-10-31T17:36:32;17.50;56.90
53268;DHT22;39156;51.176;6.738;2022-10-31T17:38:58;17.50;56.90
53268;DHT22;39156;51.176;6.738;2022-10-31T17:41:24;17.40;57.00
53268;DHT22;39156;51.176;6.738;2022-10-31T17:43:54;17.40;57.00
53268;DHT22;39156;51.176;6.738;2022-10-31T17:46:20;17.40;57.10
53268;DHT22;39156;51.176;6.738;2022-10-31T17:48:46;17.30;57.10
53268;DHT22;39156;51.176;6.738;2022-10-31T17:51:12;17.30;57.10
53268;DHT22;39156;51.176;6.738;2022-10-31T17:53:38;17.30;57.20
53268;DHT22;39156;51.176;6.738;2022-10-31T17:56:08;17.30;58.00
53268;DHT22;39156;51.176;6.738;2022-10-31T17:58:35;17.20;57.50
53268;DHT22;39156;51.176;6.738;2022-10-31T18:01:10;17.20;57.60
53268;DHT22;39156;51.176;6.738;2022-10-31T18:03:38;17.20;57.90
53268;DHT22;39156;51.176;6.738;2022-10-31T18:06:04;17.20;58.00
53268;DHT22;39156;51.176;6.738;2022-10-31T18:08:34;17.20;58.10
53268;DHT22;39156;51.176;6.738;2022-10-31T18:11:09;17.00;58.20
53268;DHT22;39156;51.176;6.738;2022-10-31T18:13:37;17.00;58.40
53268;DHT22;39156;51.176;6.738;2022-10-31T18:16:07;16.90;58.20